createdAt,value
2022-08-26T00:02:10.484Z,23.70
2022-08-26T00:04:40.140Z,23.64
2022-08-26T00:07:10.279Z,23.62
2022-08-26T00:09:41.422Z,23.54
2022-08-26T00:12:14.530Z,23.68
2022-08-26T00:14:43.819Z,23.48
2022-08-26T00:17:13.742Z,23.57
2022-08-26T00:19:45.723Z,23.58
2022-08-26T00:22:21.503Z,23.64
2022-08-26T00:24:49.806Z,23.68
2022-08-26T00:27:17.508Z,23.55
2022-08-26T00:29:47.536Z,23.48
2022-08-26T00:32:16.747Z,23.41
2022-08-26T00:34:47.750Z,23.34
2022-08-26T00:37:18.139Z,23.28
2022-08-26T00:39:48.425Z,23.11
2022-08-26T00:42:19.354Z,23.12
2022-08-26T00:44:51.099Z,23.09
2022-08-26T00:47:31.988Z,22.96
2022-08-26T00:50:04.654Z,22.88
2022-08-26T00:52:37.000Z,22.81
2022-08-26T00:55:12.385Z,22.70
2022-08-26T00:57:52.482Z,22.61
2022-08-26T01:00:25.615Z,22.47
2022-08-26T01:02:55.808Z,22.50
2022-08-26T01:05:26.478Z,22.45
2022-08-26T01:07:56.388Z,22.41
2022-08-26T01:10:28.769Z,22.45
2022-08-26T01:12:59.724Z,22.37
2022-08-26T01:15:32.923Z,22.27
2022-08-26T01:18:04.931Z,22.27
2022-08-26T01:21:29.468Z,22.14
2022-08-26T01:23:59.803Z,22.09
2022-08-26T01:26:32.445Z,22.02
2022-08-26T01:29:01.664Z,22.00
2022-08-26T01:31:39.708Z,22.00
2022-08-26T01:34:20.955Z,21.97
2022-08-26T01:36:51.634Z,21.85
2022-08-26T01:39:20.523Z,21.72
2022-08-26T01:41:53.709Z,21.65
2022-08-26T01:44:24.901Z,21.72
2022-08-26T01:46:53.982Z,21.63
2022-08-26T01:49:22.324Z,21.66
2022-08-26T01:51:51.945Z,21.66
2022-08-26T01:54:20.490Z,21.63
2022-08-26T01:56:48.702Z,21.60
2022-08-26T01:59:17.613Z,21.62
2022-08-26T02:01:47.181Z,21.56
2022-08-26T02:04:33.576Z,21.45
2022-08-26T02:07:05.204Z,21.45
2022-08-26T02:09:41.028Z,21.35
2022-08-26T02:12:12.339Z,21.27
2022-08-26T02:14:45.015Z,21.21
2022-08-26T02:17:13.969Z,21.28
2022-08-26T02:19:45.573Z,21.26
2022-08-26T02:22:24.496Z,21.26
2022-08-26T02:25:01.428Z,21.19
2022-08-26T02:27:37.209Z,21.14
2022-08-26T02:30:22.634Z,21.02
2022-08-26T02:32:52.409Z,21.00
2022-08-26T02:35:23.623Z,21.02
2022-08-26T02:37:53.360Z,20.98
2022-08-26T02:40:25.724Z,20.92
2022-08-26T02:42:56.080Z,20.95
2022-08-26T02:45:27.139Z,20.94
2022-08-26T02:47:59.602Z,21.00
2022-08-26T02:50:31.734Z,20.65
2022-08-26T02:52:59.899Z,20.80
2022-08-26T02:55:27.756Z,20.81
2022-08-26T02:57:55.289Z,20.83
2022-08-26T03:00:26.858Z,20.77
2022-08-26T03:02:56.324Z,20.78
2022-08-26T03:05:27.590Z,20.75
2022-08-26T03:07:59.008Z,20.74
2022-08-26T03:10:32.701Z,20.71
2022-08-26T03:13:04.960Z,20.71
2022-08-26T03:15:35.096Z,20.75
2022-08-26T03:18:05.978Z,20.69
2022-08-26T03:20:36.308Z,20.69
2022-08-26T03:23:05.433Z,20.72
2022-08-26T03:25:37.409Z,20.74
2022-08-26T03:28:07.840Z,20.78
2022-08-26T03:30:45.518Z,20.79
2022-08-26T03:33:14.917Z,20.79
2022-08-26T03:35:53.167Z,20.73
2022-08-26T03:38:27.282Z,20.51
2022-08-26T03:40:57.026Z,20.58
2022-08-26T03:43:27.530Z,20.63
2022-08-26T03:45:56.021Z,20.69
2022-08-26T03:48:27.744Z,20.69
2022-08-26T03:50:58.028Z,20.71
2022-08-26T03:53:29.674Z,20.73
2022-08-26T03:55:59.032Z,20.72
2022-08-26T03:58:28.679Z,20.66
2022-08-26T04:00:57.923Z,20.59
2022-08-26T04:03:45.800Z,20.67
2022-08-26T04:06:14.528Z,20.60
2022-08-26T04:08:45.534Z,20.59
2022-08-26T04:11:21.645Z,20.55
2022-08-26T04:13:49.724Z,20.46
2022-08-26T04:16:19.693Z,20.41
2022-08-26T04:18:48.664Z,20.36
2022-08-26T04:21:18.846Z,20.42
2022-08-26T04:23:52.327Z,20.41
2022-08-26T04:26:23.050Z,20.48
2022-08-26T04:28:54.280Z,20.40
2022-08-26T04:31:23.471Z,20.28
2022-08-26T04:33:52.533Z,20.28
2022-08-26T04:36:22.068Z,20.24
2022-08-26T04:38:54.953Z,20.22
2022-08-26T04:41:24.258Z,20.17
2022-08-26T04:43:55.102Z,20.16
2022-08-26T04:46:25.918Z,20.14
2022-08-26T04:48:55.491Z,20.16
2022-08-26T04:51:28.315Z,20.20
2022-08-26T04:53:57.609Z,20.22
2022-08-26T04:56:27.545Z,20.28
2022-08-26T04:58:57.391Z,20.30
2022-08-26T05:01:27.155Z,20.11
2022-08-26T05:03:57.772Z,20.12
2022-08-26T05:06:28.931Z,20.11
2022-08-26T05:09:08.547Z,20.13
2022-08-26T05:11:41.625Z,20.12
2022-08-26T05:14:13.589Z,20.21
2022-08-26T05:16:47.739Z,20.20
2022-08-26T05:19:18.964Z,20.29
2022-08-26T05:21:49.175Z,20.31
2022-08-26T05:24:18.807Z,20.39
2022-08-26T05:26:49.221Z,20.43
2022-08-26T05:29:20.653Z,20.47
2022-08-26T05:31:53.581Z,20.51
2022-08-26T05:34:30.360Z,20.62
2022-08-26T05:36:59.174Z,20.60
2022-08-26T05:39:26.865Z,20.70
2022-08-26T05:41:56.289Z,20.67
2022-08-26T05:44:27.273Z,20.70
2022-08-26T05:46:56.142Z,20.77
2022-08-26T05:49:26.793Z,20.81
2022-08-26T05:51:56.395Z,20.94
2022-08-26T05:54:25.994Z,21.04
2022-08-26T05:56:56.699Z,21.15
2022-08-26T05:59:28.133Z,21.32
2022-08-26T06:01:59.598Z,21.36
2022-08-26T06:04:31.383Z,21.46
2022-08-26T06:07:05.468Z,21.58
2022-08-26T06:09:38.592Z,21.60
2022-08-26T06:12:08.606Z,21.75
2022-08-26T06:14:38.589Z,21.74
2022-08-26T06:17:09.534Z,21.79
2022-08-26T06:19:38.566Z,21.67
2022-08-26T06:22:32.771Z,21.70
2022-08-26T06:25:21.244Z,21.76
2022-08-26T06:27:51.942Z,21.76
2022-08-26T06:30:23.875Z,21.80
2022-08-26T06:32:55.617Z,21.76
2022-08-26T06:35:23.232Z,21.77
2022-08-26T06:37:53.965Z,21.66
2022-08-26T06:40:25.941Z,21.88
2022-08-26T06:42:54.280Z,21.94
2022-08-26T06:45:24.978Z,22.02
2022-08-26T06:47:56.100Z,22.00
2022-08-26T06:50:25.461Z,22.04
2022-08-26T06:52:58.344Z,21.82
2022-08-26T06:55:28.366Z,21.86
2022-08-26T06:57:59.045Z,21.93
2022-08-26T07:00:29.138Z,22.08
2022-08-26T07:02:57.907Z,22.27
2022-08-26T07:05:29.919Z,22.46
2022-08-26T07:08:00.004Z,22.72
2022-08-26T07:10:35.473Z,22.84
2022-08-26T07:13:04.299Z,23.10
2022-08-26T07:15:37.000Z,23.27
2022-08-26T07:18:07.701Z,23.41
2022-08-26T07:20:43.904Z,23.31
2022-08-26T07:23:11.867Z,23.48
2022-08-26T07:25:40.515Z,23.65
2022-08-26T07:28:09.187Z,23.81
2022-08-26T07:30:42.454Z,23.97
2022-08-26T07:33:12.042Z,24.11
2022-08-26T07:35:40.568Z,24.42
2022-08-26T07:38:09.833Z,24.71
2022-08-26T07:40:46.310Z,24.85
2022-08-26T07:43:16.449Z,25.08
2022-08-26T07:45:46.189Z,25.26
2022-08-26T07:48:13.257Z,25.30
2022-08-26T07:50:50.381Z,25.49
2022-08-26T07:53:20.561Z,25.58
2022-08-26T07:55:50.295Z,25.60
2022-08-26T07:58:18.903Z,25.60
2022-08-26T08:00:48.543Z,25.89
2022-08-26T08:03:16.535Z,26.04
2022-08-26T08:05:48.465Z,26.17
2022-08-26T08:08:27.601Z,26.31
2022-08-26T08:10:59.737Z,26.30
2022-08-26T08:13:29.252Z,26.31
2022-08-26T08:15:58.884Z,26.31
2022-08-26T08:18:30.297Z,26.36
2022-08-26T08:21:21.089Z,26.31
2022-08-26T08:23:49.937Z,26.63
2022-08-26T08:26:18.429Z,26.80
2022-08-26T08:28:49.530Z,26.74
2022-08-26T08:34:21.857Z,27.02
2022-08-26T08:36:53.479Z,27.17
2022-08-26T08:39:23.200Z,27.31
2022-08-26T08:42:37.136Z,27.46
2022-08-26T08:45:10.322Z,27.65
2022-08-26T08:47:45.822Z,27.59
2022-08-26T08:50:37.803Z,27.54
2022-08-26T08:53:22.972Z,27.62
2022-08-26T08:56:39.418Z,27.81
2022-08-26T08:59:18.226Z,27.85
2022-08-26T09:02:06.834Z,27.93
2022-08-26T09:04:58.970Z,28.23
2022-08-26T09:07:35.902Z,28.33
2022-08-26T09:10:20.386Z,28.51
2022-08-26T09:12:50.115Z,28.69
2022-08-26T09:15:30.412Z,28.51
2022-08-26T09:18:11.975Z,28.73
2022-08-26T09:21:05.963Z,28.85
2022-08-26T09:23:35.903Z,29.01
2022-08-26T09:26:19.911Z,29.05
2022-08-26T09:29:01.942Z,29.09
2022-08-26T09:31:36.583Z,29.29
2022-08-26T09:34:20.805Z,29.40
2022-08-26T09:36:54.199Z,29.23
2022-08-26T09:39:39.339Z,29.40
2022-08-26T09:42:36.563Z,29.55
2022-08-26T09:45:11.441Z,29.60
2022-08-26T09:47:40.966Z,29.73
2022-08-26T09:50:28.983Z,29.74
2022-08-26T09:53:14.630Z,29.73
2022-08-26T09:55:49.794Z,29.54
2022-08-26T09:58:39.732Z,29.72
2022-08-26T10:01:53.021Z,29.93
2022-08-26T10:04:34.072Z,29.96
2022-08-26T10:07:12.252Z,30.20
2022-08-26T10:09:51.658Z,30.22
2022-08-26T10:12:27.794Z,30.33
2022-08-26T10:15:05.177Z,30.31
2022-08-26T10:18:07.638Z,30.37
2022-08-26T10:21:01.392Z,30.21
2022-08-26T10:23:36.922Z,30.39
2022-08-26T10:26:17.236Z,30.34
2022-08-26T10:29:17.822Z,30.22
2022-08-26T10:32:02.492Z,30.42
2022-08-26T10:34:36.329Z,30.36
2022-08-26T10:37:19.296Z,30.39
2022-08-26T10:40:18.912Z,30.71
2022-08-26T10:43:30.976Z,30.95
2022-08-26T10:46:16.485Z,31.32
2022-08-26T10:49:23.457Z,31.27
2022-08-26T10:52:21.114Z,31.31
2022-08-26T10:55:27.768Z,31.37
2022-08-26T10:58:12.575Z,31.45
2022-08-26T11:01:40.818Z,31.60
2022-08-26T11:04:47.491Z,31.73
2022-08-26T11:07:51.165Z,31.59
2022-08-26T11:10:45.620Z,31.45
2022-08-26T11:13:27.686Z,31.13
2022-08-26T11:16:06.943Z,30.73
2022-08-26T11:18:40.471Z,30.47
2022-08-26T11:21:53.446Z,30.40
2022-08-26T11:25:00.954Z,30.61
2022-08-26T11:27:57.304Z,30.51
2022-08-26T11:30:41.281Z,30.38
2022-08-26T11:33:11.276Z,30.91
2022-08-26T11:35:53.236Z,31.12
2022-08-26T11:38:30.310Z,31.27
2022-08-26T11:41:10.897Z,31.17
2022-08-26T11:43:43.026Z,31.15
2022-08-26T11:46:37.550Z,31.23
2022-08-26T11:49:26.625Z,31.34
2022-08-26T11:52:27.465Z,31.27
2022-08-26T11:55:16.413Z,31.18
2022-08-26T11:57:50.123Z,30.97
2022-08-26T12:00:27.922Z,30.78
2022-08-26T12:03:21.068Z,30.75
2022-08-26T12:05:56.003Z,30.64
2022-08-26T12:08:35.495Z,30.34
2022-08-26T12:11:40.522Z,30.22
2022-08-26T12:14:41.787Z,29.95
2022-08-26T12:17:36.441Z,29.43
2022-08-26T12:21:01.396Z,28.85
2022-08-26T12:23:48.133Z,28.54
2022-08-26T12:26:43.380Z,28.21
2022-08-26T12:29:27.199Z,28.01
2022-08-26T12:32:33.105Z,28.16
2022-08-26T12:35:29.634Z,28.15
2022-08-26T12:37:57.804Z,28.11
2022-08-26T12:40:51.625Z,28.06
2022-08-26T12:46:49.946Z,27.85
2022-08-26T12:49:24.329Z,27.87
2022-08-26T12:52:09.449Z,27.74
2022-08-26T12:54:59.688Z,27.41
2022-08-26T12:57:55.015Z,26.47
2022-08-26T13:00:53.128Z,26.29
2022-08-26T13:03:49.303Z,25.67
2022-08-26T13:06:30.460Z,25.54
2022-08-26T13:09:19.681Z,25.61
2022-08-26T13:11:50.977Z,25.64
2022-08-26T13:14:21.176Z,25.49
2022-08-26T13:16:51.174Z,25.31
2022-08-26T13:19:28.583Z,24.66
2022-08-26T13:22:00.849Z,24.52
2022-08-26T13:24:39.019Z,24.47
2022-08-26T13:27:08.892Z,24.58
2022-08-26T13:29:39.175Z,24.56
2022-08-26T13:32:09.695Z,24.67
2022-08-26T13:34:42.044Z,24.75
2022-08-26T13:37:14.191Z,24.94
2022-08-26T13:39:47.118Z,24.91
2022-08-26T13:42:19.675Z,24.92
2022-08-26T13:44:58.731Z,25.12
2022-08-26T13:47:27.664Z,25.10
2022-08-26T13:49:59.162Z,25.07
2022-08-26T13:52:34.702Z,24.94
2022-08-26T13:55:15.260Z,25.21
2022-08-26T13:57:48.118Z,25.26
2022-08-26T14:00:24.359Z,25.32
2022-08-26T14:02:54.040Z,25.49
2022-08-26T14:05:22.956Z,25.58
2022-08-26T14:07:57.938Z,25.67
2022-08-26T14:10:25.846Z,25.76
2022-08-26T14:12:53.289Z,25.81
2022-08-26T14:15:20.108Z,25.87
2022-08-26T14:17:47.337Z,26.00
2022-08-26T14:20:18.661Z,26.03
2022-08-26T14:23:03.612Z,26.27
2022-08-26T14:25:33.790Z,26.56
2022-08-26T14:28:01.716Z,26.79
2022-08-26T14:30:29.048Z,26.91
2022-08-26T14:33:02.226Z,26.61
2022-08-26T14:35:30.577Z,26.59
2022-08-26T14:37:58.173Z,26.73
2022-08-26T14:40:29.014Z,26.91
2022-08-26T14:42:55.748Z,26.78
2022-08-26T14:45:26.686Z,26.86
2022-08-26T14:47:55.926Z,26.96
2022-08-26T14:50:24.764Z,26.89
2022-08-26T14:53:11.080Z,26.96
2022-08-26T14:55:41.038Z,27.13
2022-08-26T14:58:09.617Z,27.06
2022-08-26T15:00:36.951Z,27.11
2022-08-26T15:03:04.075Z,27.06
2022-08-26T15:05:30.902Z,26.90
2022-08-26T15:07:57.522Z,26.84
2022-08-26T15:10:24.880Z,26.87
2022-08-26T15:12:51.558Z,26.78
2022-08-26T15:15:19.133Z,26.80
2022-08-26T15:17:45.801Z,26.78
2022-08-26T15:20:13.445Z,26.83
2022-08-26T15:22:42.465Z,26.70
2022-08-26T15:25:10.974Z,26.84
2022-08-26T15:27:37.802Z,26.90
2022-08-26T15:30:10.860Z,26.87
2022-08-26T15:32:37.599Z,26.86
2022-08-26T15:35:08.898Z,26.95
2022-08-26T15:37:36.057Z,26.95
2022-08-26T15:40:03.295Z,26.87
2022-08-26T15:42:30.156Z,26.90
2022-08-26T15:44:57.148Z,26.95
2022-08-26T15:47:24.053Z,26.96
2022-08-26T15:49:50.779Z,27.03
2022-08-26T15:52:17.618Z,27.04
2022-08-26T15:54:44.538Z,27.06
2022-08-26T15:57:11.955Z,27.02
2022-08-26T15:59:40.390Z,27.02
2022-08-26T16:02:07.534Z,27.14
2022-08-26T16:04:34.677Z,27.50
2022-08-26T16:07:02.786Z,27.57
2022-08-26T16:09:30.828Z,27.94
2022-08-26T16:11:57.895Z,28.01
2022-08-26T16:14:25.930Z,27.93
2022-08-26T16:16:53.767Z,27.87
2022-08-26T16:19:21.345Z,27.57
2022-08-26T16:21:49.358Z,27.27
2022-08-26T16:24:16.092Z,27.29
2022-08-26T16:26:43.225Z,27.23
2022-08-26T16:29:13.159Z,27.50
2022-08-26T16:31:40.784Z,27.49
2022-08-26T16:34:08.106Z,27.47
2022-08-26T16:36:36.927Z,27.80
2022-08-26T16:39:05.019Z,27.74
2022-08-26T16:41:32.132Z,27.98
2022-08-26T16:43:59.548Z,28.12
2022-08-26T16:46:26.760Z,28.13
2022-08-26T16:48:55.307Z,28.16
2022-08-26T16:51:24.073Z,28.16
2022-08-26T16:53:51.817Z,28.16
2022-08-26T16:56:21.341Z,28.02
2022-08-26T16:58:51.138Z,27.75
2022-08-26T17:01:17.862Z,27.46
2022-08-26T17:03:44.752Z,27.29
2022-08-26T17:06:11.903Z,27.22
2022-08-26T17:08:39.701Z,27.02
2022-08-26T17:11:07.684Z,26.93
2022-08-26T17:13:36.117Z,26.85
2022-08-26T17:16:08.910Z,26.72
2022-08-26T17:18:36.509Z,26.56
2022-08-26T17:21:05.924Z,26.31
2022-08-26T17:23:32.952Z,26.00
2022-08-26T17:26:00.023Z,25.84
2022-08-26T17:28:27.527Z,25.71
2022-08-26T17:30:57.688Z,25.40
2022-08-26T17:33:25.361Z,25.25
2022-08-26T17:35:53.126Z,25.35
2022-08-26T17:38:21.738Z,25.34
2022-08-26T17:40:52.178Z,25.18
2022-08-26T17:43:18.962Z,25.07
2022-08-26T17:45:45.870Z,25.05
2022-08-26T17:48:12.668Z,25.16
2022-08-26T17:50:41.371Z,24.86
2022-08-26T17:53:09.033Z,24.72
2022-08-26T17:55:41.785Z,25.01
2022-08-26T17:58:11.897Z,25.00
2022-08-26T18:00:47.254Z,25.04
2022-08-26T18:03:14.274Z,25.14
2022-08-26T18:05:42.632Z,25.07
2022-08-26T18:08:09.980Z,25.08
2022-08-26T18:10:37.396Z,25.13
2022-08-26T18:13:04.120Z,25.11
2022-08-26T18:15:30.703Z,25.04
2022-08-26T18:17:57.545Z,24.92
2022-08-26T18:20:24.206Z,24.85
2022-08-26T18:22:50.844Z,24.88
2022-08-26T18:25:18.092Z,24.74
2022-08-26T18:27:45.083Z,24.69
2022-08-26T18:30:17.269Z,24.70
2022-08-26T18:32:44.587Z,24.44
2022-08-26T18:35:12.154Z,24.15
2022-08-26T18:37:39.949Z,24.00
2022-08-26T18:40:10.029Z,24.06
2022-08-26T18:42:36.973Z,23.97
2022-08-26T18:45:06.104Z,23.97
2022-08-26T18:47:33.349Z,23.91
2022-08-26T18:50:01.115Z,23.92
2022-08-26T18:52:28.316Z,24.00
2022-08-26T18:54:55.576Z,24.09
2022-08-26T18:57:22.697Z,24.12
2022-08-26T18:59:49.463Z,24.04
2022-08-26T19:02:16.166Z,23.90
2022-08-26T19:04:42.982Z,23.88
2022-08-26T19:07:10.094Z,23.84
2022-08-26T19:09:37.348Z,23.78
2022-08-26T19:12:05.426Z,23.91
2022-08-26T19:14:32.938Z,23.92
2022-08-26T19:17:00.905Z,23.80
2022-08-26T19:19:27.857Z,23.80
2022-08-26T19:21:55.210Z,23.77
2022-08-26T19:24:23.393Z,23.82
2022-08-26T19:26:58.509Z,23.79
2022-08-26T19:29:35.751Z,23.71
2022-08-26T19:32:03.288Z,23.77
2022-08-26T19:34:30.305Z,23.67
2022-08-26T19:36:58.816Z,23.69
2022-08-26T19:39:26.395Z,23.69
2022-08-26T19:41:53.540Z,23.71
2022-08-26T19:44:41.060Z,23.66
2022-08-26T19:47:09.315Z,23.60
2022-08-26T19:49:36.058Z,23.60
2022-08-26T19:52:07.488Z,23.68
2022-08-26T19:54:35.340Z,23.65
2022-08-26T19:57:02.192Z,23.67
2022-08-26T19:59:29.440Z,23.64
2022-08-26T20:02:01.128Z,23.67
2022-08-26T20:04:32.930Z,23.67
2022-08-26T20:07:00.936Z,23.60
2022-08-26T20:09:32.891Z,23.57
2022-08-26T20:11:59.881Z,23.53
2022-08-26T20:14:27.456Z,23.49
2022-08-26T20:16:54.583Z,23.45
2022-08-26T20:19:39.983Z,23.38
2022-08-26T20:22:07.673Z,23.31
2022-08-26T20:24:35.696Z,23.24
2022-08-26T20:27:07.457Z,23.24
2022-08-26T20:29:35.500Z,23.30
2022-08-26T20:32:02.848Z,23.22
2022-08-26T20:34:30.451Z,23.08
2022-08-26T20:36:57.032Z,23.06
2022-08-26T20:39:24.368Z,22.99
2022-08-26T20:41:51.691Z,23.02
2022-08-26T20:44:19.401Z,23.13
2022-08-26T20:46:46.132Z,23.11
2022-08-26T20:49:13.470Z,23.14
2022-08-26T20:51:43.548Z,23.17
2022-08-26T20:54:12.758Z,23.12
2022-08-26T20:56:39.880Z,23.15
2022-08-26T20:59:08.552Z,23.07
2022-08-26T21:01:42.394Z,23.03
2022-08-26T21:04:12.474Z,22.99
2022-08-26T21:06:39.993Z,22.84
2022-08-26T21:09:11.608Z,22.72
2022-08-26T21:11:39.622Z,22.74
2022-08-26T21:14:16.147Z,22.59
2022-08-26T21:16:46.774Z,22.58
2022-08-26T21:19:15.760Z,22.54
2022-08-26T21:21:43.025Z,22.27
2022-08-26T21:24:09.992Z,22.39
2022-08-26T21:26:37.417Z,22.40
2022-08-26T21:29:06.878Z,22.46
2022-08-26T21:31:36.080Z,22.55
2022-08-26T21:34:02.913Z,22.41
2022-08-26T21:36:30.016Z,22.49
2022-08-26T21:38:57.678Z,22.27
2022-08-26T21:41:26.019Z,22.46
2022-08-26T21:43:56.208Z,22.39
2022-08-26T21:46:25.292Z,22.44
2022-08-26T21:48:58.456Z,22.42
2022-08-26T21:51:27.698Z,22.38
2022-08-26T21:53:56.366Z,22.43
2022-08-26T21:56:25.192Z,22.60
2022-08-26T21:58:53.133Z,22.51
2022-08-26T22:01:22.098Z,22.60
2022-08-26T22:03:50.005Z,22.67
2022-08-26T22:06:19.294Z,22.62
2022-08-26T22:08:45.971Z,22.50
2022-08-26T22:11:13.979Z,22.49
2022-08-26T22:13:42.206Z,22.47
2022-08-26T22:16:10.289Z,22.51
2022-08-26T22:18:37.537Z,22.46
2022-08-26T22:21:08.017Z,22.53
2022-08-26T22:23:36.407Z,22.44
2022-08-26T22:26:03.247Z,22.33
2022-08-26T22:28:30.007Z,22.47
2022-08-26T22:30:57.501Z,22.53
2022-08-26T22:33:25.006Z,22.41
2022-08-26T22:35:53.018Z,22.31
2022-08-26T22:38:20.771Z,22.34
2022-08-26T22:40:50.697Z,22.28
2022-08-26T22:43:18.830Z,22.22
2022-08-26T22:45:47.315Z,22.30
2022-08-26T22:48:17.239Z,22.31
2022-08-26T22:50:45.952Z,22.28
2022-08-26T22:53:13.349Z,22.33
2022-08-26T22:55:40.197Z,22.30
2022-08-26T22:58:08.499Z,22.26
2022-08-26T23:00:36.100Z,22.23
2022-08-26T23:03:04.464Z,22.30
2022-08-26T23:05:32.044Z,22.33
2022-08-26T23:07:59.082Z,22.26
2022-08-26T23:10:26.045Z,22.16
2022-08-26T23:12:53.661Z,22.27
2022-08-26T23:15:21.224Z,22.49
2022-08-26T23:17:48.322Z,22.55
2022-08-26T23:20:25.553Z,22.51
2022-08-26T23:22:53.663Z,22.38
2022-08-26T23:25:21.116Z,22.39
2022-08-26T23:27:47.981Z,22.42
2022-08-26T23:30:21.707Z,22.50
2022-08-26T23:32:49.018Z,22.48
2022-08-26T23:35:15.888Z,22.42
2022-08-26T23:37:48.090Z,22.43
2022-08-26T23:40:26.787Z,22.39
2022-08-26T23:42:55.786Z,22.30
2022-08-26T23:45:23.687Z,22.35
2022-08-26T23:47:50.893Z,22.35
2022-08-26T23:50:19.970Z,22.35
2022-08-26T23:53:05.887Z,22.39
2022-08-26T23:55:39.430Z,22.30
2022-08-26T23:58:06.578Z,22.14
